KPRB

Details ICAO KPRB
Name PASO ROBLES MUNI
Region United States
Timezone America/Los_Angeles (UTC-8.0)
Plans Departing 21
Arriving 7
Stats Elevation 836 ft / 255 m (AMSL)
Location 35.672813° -120.626559°
Runways 2
Magnetic Variation 12.766° E
Sunrise 2017-12-15 15:06:32 UTC / 2017-12-15 07:06:32 Local
Sunset 2017-12-16 00:51:53 UTC / 2017-12-15 16:51:53 Local
Advertisement - Login to hide

Runways

ID Width Length Bearing (true) Bearing (mag) Surface Threshold Offset Overrun Length
01 150 ft / 46 m 6,016 ft / 1,834 m 28.54° 15.77° Asphalt 0 ft / 0 m 0 ft / 0 m
13 100 ft / 30 m 4,704 ft / 1,434 m 143.77° 131.00° Asphalt 0 ft / 0 m 0 ft / 0 m
19 150 ft / 46 m 6,016 ft / 1,834 m 208.54° 195.77° Asphalt 0 ft / 0 m 0 ft / 0 m
31 100 ft / 30 m 4,704 ft / 1,434 m 323.77° 311.00° Asphalt 0 ft / 0 m 0 ft / 0 m

Map

Weather


0- 5 10 15 20 25 30 35+ Temperature / ° C

Clouds and Precipitation
Forecast for 2017-12-15 18:00 UTC. Updated an hour ago

Ground ~20,000 ft ~40,000 ft Winds

METAR

KPRB 151753Z AUTO 00000KT 10SM CLR 08/M05 A3019 RMK AO2 SLP225 T00781050 10078 21039 58002

TAF

KPRB 151740Z 1518/1618 VRB03KT P6SM SCT250 FM152200 22008KT P6SM SCT250 FM160500 30006KT P6SM BKN250 FM161200 36006KT P6SM SCT250

Frequencies

Recorded 132.17 MHz ASOS
Unicom 123.00 MHz CTAF/UNICOM
Warning: Do not use this data for real-world aviation or navigation. No guarantee of current accuracy is given.